Terminal Aerodrome Forecast
Issued by NWS

Home | Current Version | Previous Version | Text Only | Print | Product List | Glossary On
Versions: 1 2 3 4 5 6 7 8 9 10 11 12 13 14 15 16 17 18 19 20
901
FTUS46 KLOX 280540
TAFBUR
TAF
KBUR 280540Z 2806/2906 17005KT P6SM SKC
     FM281000 VRB03KT P6SM BKN015
     FM281700 VRB03KT P6SM SCT015
     FM282000 18008KT P6SM SKC
     FM290300 VRB03KT P6SM SKC=

USA.gov is the U.S. government's official web portal to all federal, state and local government web resources and services.